Time;durP1;ratioP1;P1;durP2;ratioP2;P2;SDS_P1;SDS_P2;PMS_P1;PMS_P2;Temp;Humidity;BMP_temperature;BMP_pressure;BME280_temperature;BME280_humidity;BME280_pressure;Samples;Min_cycle;Max_cycle;Signal;HPM_P1;HPM_P2
2023/08/31 00:00:45;;;;;;;3.42;1.15;;;16.10;75.40;;;;;;5086738;28;20035;-93
2023/08/31 00:03:13;;;;;;;1.40;1.00;;;16.10;75.10;;;;;;5087114;28;20479;-92
2023/08/31 00:05:41;;;;;;;1.00;0.90;;;16.10;75.00;;;;;;5087858;28;20027;-92
2023/08/31 00:08:07;;;;;;;1.75;0.88;;;16.00;75.00;;;;;;5086330;28;20027;-92
2023/08/31 00:10:34;;;;;;;1.08;0.80;;;16.00;74.80;;;;;;5085501;28;20106;-93
2023/08/31 00:13:01;;;;;;;2.50;1.20;;;16.00;74.90;;;;;;5085881;28;20039;-92
2023/08/31 00:15:28;;;;;;;1.58;1.10;;;16.00;75.00;;;;;;5086599;28;20035;-92
2023/08/31 00:17:54;;;;;;;1.63;1.05;;;16.00;74.90;;;;;;5085912;28;20024;-92
2023/08/31 00:20:21;;;;;;;1.23;0.93;;;16.00;75.00;;;;;;5084498;28;20031;-92
2023/08/31 00:22:48;;;;;;;1.98;0.98;;;16.00;75.30;;;;;;5083221;28;20043;-93
2023/08/31 00:25:13;;;;;;;1.75;1.10;;;15.90;75.20;;;;;;5085359;28;20068;-92
2023/08/31 00:27:40;;;;;;;2.03;1.00;;;16.00;75.20;;;;;;5089655;28;20027;-92
2023/08/31 00:30:11;;;;;;;0.80;0.63;;;16.00;75.50;;;;;;5089268;28;20054;-94
2023/08/31 00:32:39;;;;;;;1.05;0.90;;;16.00;75.70;;;;;;5084931;28;20028;-92
2023/08/31 00:35:08;;;;;;;2.08;1.13;;;16.00;75.50;;;;;;5067535;28;20044;-93
2023/08/31 00:37:34;;;;;;;5.68;1.27;;;16.00;75.60;;;;;;5083757;28;20092;-91
2023/08/31 00:40:00;;;;;;;3.95;1.00;;;16.10;75.70;;;;;;5087097;28;20982;-91
2023/08/31 00:42:26;;;;;;;1.85;1.00;;;16.10;75.90;;;;;;5089137;28;20019;-91
2023/08/31 00:44:51;;;;;;;1.13;1.00;;;16.10;75.70;;;;;;5085960;28;20091;-91
2023/08/31 00:47:17;;;;;;;3.58;1.00;;;16.10;75.50;;;;;;5089914;28;20489;-92
2023/08/31 00:49:43;;;;;;;1.20;1.10;;;16.10;75.50;;;;;;5086693;28;20038;-91
2023/08/31 00:52:10;;;;;;;1.30;1.15;;;16.10;75.30;;;;;;5085888;28;20024;-92
2023/08/31 00:54:36;;;;;;;1.17;1.00;;;16.10;75.30;;;;;;5088043;28;20027;-92
2023/08/31 00:57:03;;;;;;;1.40;1.30;;;16.10;75.40;;;;;;5086443;28;20055;-92
2023/08/31 00:59:29;;;;;;;2.70;1.15;;;16.10;75.30;;;;;;5080690;28;20083;-92
2023/08/31 01:02:16;;;;;;;2.30;1.50;;;16.10;75.30;;;;;;5089220;28;20410;-95
2023/08/31 01:04:51;;;;;;;1.38;1.20;;;16.10;75.60;;;;;;5085047;28;20107;-94
2023/08/31 01:07:52;;;;;;;2.70;1.52;;;16.10;75.70;;;;;;5086535;28;20028;-91
2023/08/31 01:10:28;;;;;;;2.35;1.20;;;16.10;75.60;;;;;;5083214;28;20055;-93
2023/08/31 01:12:56;;;;;;;3.05;1.67;;;16.10;75.20;;;;;;5082651;28;20032;-93
2023/08/31 01:15:23;;;;;;;2.13;1.60;;;16.10;75.30;;;;;;5086963;28;20027;-93
2023/08/31 01:17:52;;;;;;;1.85;1.30;;;16.10;75.30;;;;;;5088355;28;20458;-92
2023/08/31 01:20:28;;;;;;;3.42;1.70;;;16.20;75.20;;;;;;5080899;28;20032;-93
2023/08/31 01:23:03;;;;;;;2.25;1.50;;;16.10;75.20;;;;;;5085644;28;20024;-92
2023/08/31 01:25:31;;;;;;;1.95;1.42;;;16.10;75.40;;;;;;5085772;28;20059;-93
2023/08/31 01:27:58;;;;;;;2.58;1.50;;;16.10;75.20;;;;;;5086227;28;20032;-92
2023/08/31 01:30:24;;;;;;;2.25;1.63;;;16.10;75.20;;;;;;5091079;28;20040;-92
2023/08/31 01:32:50;;;;;;;6.15;1.50;;;16.10;74.90;;;;;;5088017;28;20054;-93
2023/08/31 01:35:17;;;;;;;1.42;1.15;;;16.10;74.90;;;;;;5081914;28;20403;-93
2023/08/31 01:37:52;;;;;;;2.03;1.38;;;16.10;75.10;;;;;;5086744;28;20247;-92
2023/08/31 01:40:45;;;;;;;2.08;1.40;;;16.10;75.10;;;;;;5093446;28;20119;-92
2023/08/31 01:43:12;;;;;;;2.40;1.30;;;16.10;75.20;;;;;;5090844;28;20027;-92
2023/08/31 01:45:39;;;;;;;2.90;1.25;;;16.10;74.80;;;;;;5086869;28;20101;-92
2023/08/31 01:48:05;;;;;;;3.80;1.67;;;16.10;75.00;;;;;;5100074;28;20024;-92
2023/08/31 01:50:31;;;;;;;2.53;1.30;;;16.10;74.90;;;;;;5087669;28;20032;-93
2023/08/31 01:52:57;;;;;;;2.75;1.50;;;16.10;74.80;;;;;;5092977;28;20030;-92
2023/08/31 01:55:23;;;;;;;2.85;1.38;;;16.00;74.50;;;;;;5088227;28;20039;-92
2023/08/31 01:57:49;;;;;;;4.25;1.60;;;16.00;74.30;;;;;;5090382;28;20138;-92
2023/08/31 02:00:17;;;;;;;3.58;1.40;;;16.00;74.30;;;;;;5089525;28;20050;-92
2023/08/31 02:02:43;;;;;;;3.03;1.23;;;15.90;74.60;;;;;;5092204;28;20027;-93
2023/08/31 02:05:09;;;;;;;3.85;1.40;;;15.90;74.50;;;;;;5089374;28;20049;-92
2023/08/31 02:07:35;;;;;;;4.57;1.73;;;15.90;74.60;;;;;;5088683;28;20502;-93
2023/08/31 02:10:02;;;;;;;1.88;1.38;;;15.80;74.70;;;;;;5088694;28;20083;-92
2023/08/31 02:12:27;;;;;;;2.63;1.50;;;15.80;74.70;;;;;;5090250;28;20027;-92
2023/08/31 02:14:53;;;;;;;2.35;1.52;;;15.80;74.60;;;;;;5090150;28;20112;-93
2023/08/31 02:17:19;;;;;;;2.03;1.40;;;15.80;74.50;;;;;;5085084;28;20467;-92
2023/08/31 02:19:45;;;;;;;3.55;1.40;;;15.70;74.40;;;;;;5089641;28;20027;-93
2023/08/31 02:22:11;;;;;;;5.13;1.60;;;15.70;74.20;;;;;;5085192;28;20135;-93
2023/08/31 02:24:37;;;;;;;3.15;1.38;;;15.60;74.20;;;;;;5084724;28;20452;-93
2023/08/31 02:27:03;;;;;;;7.30;1.63;;;15.50;74.00;;;;;;5091889;28;20084;-92
2023/08/31 02:29:28;;;;;;;7.90;1.80;;;15.50;74.00;;;;;;5088644;28;20016;-92
2023/08/31 02:31:54;;;;;;;2.28;1.30;;;15.40;74.00;;;;;;5090473;28;20024;-94
2023/08/31 02:34:20;;;;;;;5.90;1.42;;;15.30;74.00;;;;;;5092249;28;20079;-94
2023/08/31 02:36:46;;;;;;;1.83;1.50;;;15.20;73.90;;;;;;5089404;28;20034;-94
2023/08/31 02:39:12;;;;;;;3.47;1.77;;;15.20;74.10;;;;;;5089297;28;20027;-94
2023/08/31 02:41:38;;;;;;;3.33;1.58;;;15.10;74.10;;;;;;5092506;28;20508;-94
2023/08/31 02:44:04;;;;;;;3.03;1.58;;;15.10;74.10;;;;;;5095197;28;20028;-93
2023/08/31 02:46:31;;;;;;;3.63;1.60;;;15.00;74.20;;;;;;5092760;28;20023;-92
2023/08/31 02:48:56;;;;;;;2.40;1.52;;;14.90;74.20;;;;;;5088886;28;20134;-93
2023/08/31 02:51:22;;;;;;;4.00;1.50;;;14.80;74.30;;;;;;5081781;28;20028;-93
2023/08/31 02:53:48;;;;;;;3.05;1.35;;;14.80;74.40;;;;;;5087910;28;20059;-93
2023/08/31 02:56:14;;;;;;;2.22;1.48;;;14.70;74.30;;;;;;5095547;27;20042;-92
2023/08/31 02:58:43;;;;;;;2.63;1.40;;;14.60;74.40;;;;;;5091179;28;20027;-92
2023/08/31 03:01:13;;;;;;;2.22;1.45;;;14.60;74.40;;;;;;5085811;28;20036;-91
2023/08/31 03:03:40;;;;;;;5.95;1.38;;;14.50;74.70;;;;;;5089861;28;20081;-91
2023/08/31 03:06:09;;;;;;;6.80;1.48;;;14.40;74.60;;;;;;5091883;28;20032;-94
2023/08/31 03:08:36;;;;;;;1.40;1.30;;;14.40;74.80;;;;;;5090582;28;20403;-93
2023/08/31 03:11:03;;;;;;;3.88;1.60;;;14.40;74.80;;;;;;5083453;28;20031;-94
2023/08/31 03:13:29;;;;;;;2.75;1.50;;;14.30;75.00;;;;;;5092002;28;20102;-94
2023/08/31 03:15:56;;;;;;;3.17;1.58;;;14.30;75.10;;;;;;5096170;28;20416;-95
2023/08/31 03:18:22;;;;;;;2.45;1.55;;;14.20;75.10;;;;;;5090506;28;20085;-94
2023/08/31 03:20:48;;;;;;;3.55;1.70;;;14.20;75.80;;;;;;5087557;28;20046;-93
2023/08/31 03:23:14;;;;;;;3.05;1.48;;;14.20;75.10;;;;;;5092914;28;20077;-94
2023/08/31 03:25:40;;;;;;;2.72;1.80;;;14.10;75.10;;;;;;5093832;28;20111;-93
2023/08/31 03:28:06;;;;;;;1.65;1.23;;;14.20;75.20;;;;;;5087453;28;20023;-94
2023/08/31 03:30:32;;;;;;;4.00;1.20;;;14.10;75.10;;;;;;5093974;28;20080;-94
2023/08/31 03:32:58;;;;;;;1.90;1.08;;;14.10;75.20;;;;;;5094261;27;20089;-94
2023/08/31 03:35:26;;;;;;;2.88;1.42;;;14.10;75.20;;;;;;5087830;28;20070;-94
2023/08/31 03:37:56;;;;;;;8.80;1.52;;;14.10;75.30;;;;;;5088945;28;20407;-94
2023/08/31 03:40:25;;;;;;;2.60;1.35;;;14.00;75.40;;;;;;5091789;28;20039;-94
2023/08/31 03:42:52;;;;;;;2.80;1.60;;;14.00;75.50;;;;;;5083361;28;20104;-94
2023/08/31 03:45:18;;;;;;;2.63;1.67;;;14.00;75.50;;;;;;5085271;28;20020;-93
2023/08/31 03:47:44;;;;;;;5.10;1.70;;;14.00;75.50;;;;;;5085136;28;20045;-95
2023/08/31 03:50:10;;;;;;;5.72;2.20;;;13.90;75.40;;;;;;5088841;28;20027;-94
2023/08/31 03:52:35;;;;;;;5.13;1.90;;;13.90;75.40;;;;;;5080850;28;20080;-93
2023/08/31 03:55:01;;;;;;;6.03;2.05;;;13.80;75.50;;;;;;5086779;28;20099;-94
2023/08/31 03:57:27;;;;;;;6.60;2.30;;;13.80;75.60;;;;;;5069222;28;20067;-93
2023/08/31 03:59:53;;;;;;;5.18;1.98;;;13.80;75.70;;;;;;5088491;28;20024;-93
2023/08/31 04:02:19;;;;;;;1.08;1.08;;;13.80;75.70;;;;;;5085145;28;20040;-93
2023/08/31 04:04:44;;;;;;;1.60;1.10;;;13.80;75.40;;;;;;5082907;28;20036;-95
2023/08/31 04:07:10;;;;;;;1.10;0.93;;;13.80;75.10;;;;;;5090443;28;20034;-93
2023/08/31 04:09:36;;;;;;;1.88;0.90;;;13.70;75.00;;;;;;5105777;28;20100;-93
2023/08/31 04:12:03;;;;;;;2.17;1.40;;;13.70;75.00;;;;;;5090569;28;20487;-94
2023/08/31 04:14:28;;;;;;;3.13;1.60;;;13.70;75.20;;;;;;5086894;28;20051;-93
2023/08/31 04:16:55;;;;;;;2.80;1.38;;;13.70;75.20;;;;;;5088901;28;20118;-93
2023/08/31 04:19:21;;;;;;;4.18;1.25;;;13.60;75.30;;;;;;5090020;28;20037;-92
2023/08/31 04:21:47;;;;;;;2.20;1.73;;;13.60;75.20;;;;;;5089242;28;20048;-93
2023/08/31 04:24:13;;;;;;;2.05;1.67;;;13.60;75.40;;;;;;5085812;28;20043;-93
2023/08/31 04:26:39;;;;;;;1.83;1.60;;;13.60;75.30;;;;;;5084256;28;20024;-94
2023/08/31 04:29:05;;;;;;;1.73;1.50;;;13.60;75.40;;;;;;5089447;28;20109;-94
2023/08/31 04:31:32;;;;;;;3.42;1.80;;;13.50;75.20;;;;;;5090423;28;20031;-94
2023/08/31 04:33:58;;;;;;;5.00;2.08;;;13.50;75.40;;;;;;5083503;28;20055;-93
2023/08/31 04:36:25;;;;;;;2.00;1.80;;;13.50;75.30;;;;;;5088283;28;20020;-93
2023/08/31 04:38:51;;;;;;;5.25;2.00;;;13.40;75.50;;;;;;5089260;28;20032;-93
2023/08/31 04:41:17;;;;;;;4.53;2.08;;;13.40;75.80;;;;;;5085085;28;20084;-93
2023/08/31 04:43:43;;;;;;;3.03;2.10;;;13.40;75.90;;;;;;5089423;28;20374;-93
2023/08/31 04:46:09;;;;;;;3.03;1.65;;;13.40;76.10;;;;;;5084766;28;20036;-92
2023/08/31 04:48:36;;;;;;;3.03;2.08;;;13.40;76.20;;;;;;5082537;28;20032;-92
2023/08/31 04:51:03;;;;;;;2.88;1.92;;;13.40;76.30;;;;;;5082936;28;20127;-92
2023/08/31 04:53:30;;;;;;;4.07;1.90;;;13.40;76.30;;;;;;5083594;28;20039;-92
2023/08/31 04:55:56;;;;;;;2.90;1.85;;;13.30;76.40;;;;;;5085646;28;20028;-92
2023/08/31 04:58:21;;;;;;;3.15;1.70;;;13.30;76.40;;;;;;5083701;28;20027;-93
2023/08/31 05:00:47;;;;;;;2.40;1.80;;;13.40;76.50;;;;;;5086710;28;20031;-92
2023/08/31 05:03:13;;;;;;;1.92;1.48;;;13.40;76.40;;;;;;5081623;28;20026;-93
2023/08/31 05:05:39;;;;;;;3.53;1.50;;;13.40;76.30;;;;;;5084423;28;20474;-92
2023/08/31 05:08:05;;;;;;;3.08;1.35;;;13.40;76.10;;;;;;5086349;28;20061;-93
2023/08/31 05:10:31;;;;;;;2.85;1.50;;;13.40;76.20;;;;;;5096294;28;20084;-93
2023/08/31 05:12:57;;;;;;;2.47;1.60;;;13.40;76.10;;;;;;5081616;28;20027;-93
2023/08/31 05:15:23;;;;;;;1.98;1.38;;;13.40;76.10;;;;;;5080508;28;20027;-92
2023/08/31 05:17:48;;;;;;;7.18;1.50;;;13.40;76.10;;;;;;5083854;28;20031;-93
2023/08/31 05:20:14;;;;;;;2.83;1.88;;;13.40;76.10;;;;;;5082867;28;20024;-93
2023/08/31 05:22:40;;;;;;;3.72;1.65;;;13.50;76.30;;;;;;5083312;28;20101;-93
2023/08/31 05:25:06;;;;;;;4.30;1.95;;;13.50;76.40;;;;;;5090818;28;20091;-93
2023/08/31 05:27:32;;;;;;;3.38;1.80;;;13.50;76.50;;;;;;5075785;28;20082;-93
2023/08/31 05:29:57;;;;;;;2.40;1.80;;;13.50;76.70;;;;;;5081456;28;20054;-93
2023/08/31 05:32:23;;;;;;;3.35;2.03;;;13.60;76.90;;;;;;5087641;28;20559;-92
2023/08/31 05:34:49;;;;;;;4.63;1.70;;;13.60;76.90;;;;;;5081033;28;20028;-93
2023/08/31 05:37:15;;;;;;;1.83;1.50;;;13.60;77.00;;;;;;5081694;28;20089;-93
2023/08/31 05:39:40;;;;;;;3.90;1.75;;;13.70;77.00;;;;;;5079113;28;20055;-94
2023/08/31 05:42:06;;;;;;;4.43;1.65;;;13.80;76.90;;;;;;5101758;28;20376;-92
2023/08/31 05:44:32;;;;;;;2.08;1.63;;;13.80;76.60;;;;;;5083668;28;20028;-93
2023/08/31 05:46:57;;;;;;;5.70;1.70;;;13.80;76.40;;;;;;5076845;28;20037;-91
2023/08/31 05:49:23;;;;;;;2.20;1.83;;;13.80;76.30;;;;;;5081877;28;20489;-92
2023/08/31 05:51:50;;;;;;;4.60;1.63;;;13.90;76.20;;;;;;5089824;28;20081;-92
2023/08/31 05:54:16;;;;;;;3.80;1.90;;;13.90;76.20;;;;;;5083820;28;20028;-93
2023/08/31 05:56:42;;;;;;;2.00;1.63;;;13.90;76.20;;;;;;5083482;28;20444;-93
2023/08/31 05:59:08;;;;;;;2.17;1.77;;;13.80;76.20;;;;;;5085068;28;20038;-92
2023/08/31 06:01:36;;;;;;;3.03;1.65;;;13.90;76.40;;;;;;5081749;28;20047;-92
2023/08/31 06:04:03;;;;;;;2.85;1.65;;;13.90;76.80;;;;;;5085990;28;20028;-92
2023/08/31 06:06:29;;;;;;;2.95;1.88;;;14.00;77.10;;;;;;5080545;28;20028;-91
2023/08/31 06:08:56;;;;;;;2.55;1.85;;;14.10;77.30;;;;;;5081913;28;20032;-92
2023/08/31 06:11:22;;;;;;;3.15;1.90;;;14.10;77.50;;;;;;5083484;28;20106;-91
2023/08/31 06:13:48;;;;;;;2.17;1.73;;;14.20;77.50;;;;;;5080225;28;20068;-92
2023/08/31 06:16:14;;;;;;;3.55;1.70;;;14.40;77.60;;;;;;5089041;28;20110;-92
2023/08/31 06:18:39;;;;;;;6.75;1.73;;;14.50;77.60;;;;;;5094001;28;20032;-92
2023/08/31 06:21:05;;;;;;;5.38;1.67;;;14.60;77.80;;;;;;5083936;28;20458;-92
2023/08/31 06:23:31;;;;;;;4.70;1.88;;;14.70;78.30;;;;;;5082408;28;20028;-92
2023/08/31 06:25:57;;;;;;;3.72;2.00;;;14.80;77.50;;;;;;5090427;28;20027;-92
2023/08/31 06:28:22;;;;;;;6.07;2.00;;;15.00;77.30;;;;;;5089548;28;20391;-92
2023/08/31 06:30:48;;;;;;;1.77;1.63;;;15.10;76.90;;;;;;5089853;28;20032;-93
2023/08/31 06:33:17;;;;;;;5.05;2.15;;;15.20;76.80;;;;;;5075881;28;20487;-92
2023/08/31 06:35:48;;;;;;;7.15;2.10;;;15.30;76.60;;;;;;5077344;28;20024;-91
2023/08/31 06:38:14;;;;;;;4.00;1.80;;;15.40;76.40;;;;;;5061230;28;20031;-92
2023/08/31 06:40:41;;;;;;;7.25;2.15;;;15.40;75.90;;;;;;5068753;28;20501;-92
2023/08/31 06:43:07;;;;;;;3.85;2.25;;;15.50;75.90;;;;;;5057391;28;20123;-91
2023/08/31 06:45:33;;;;;;;8.20;2.17;;;15.50;75.80;;;;;;5069296;28;20436;-92
2023/08/31 06:48:00;;;;;;;4.65;1.95;;;15.60;75.90;;;;;;5071299;28;20111;-91
2023/08/31 06:50:26;;;;;;;3.75;1.92;;;15.60;76.10;;;;;;5072385;28;20035;-92
2023/08/31 06:52:52;;;;;;;2.38;1.65;;;15.70;75.90;;;;;;5068621;28;20437;-91
2023/08/31 06:55:18;;;;;;;3.53;1.65;;;15.70;75.70;;;;;;5068224;28;20031;-92
2023/08/31 06:57:43;;;;;;;3.75;1.63;;;15.80;75.80;;;;;;5064160;28;20114;-92
2023/08/31 07:00:11;;;;;;;2.60;1.52;;;15.80;75.80;;;;;;5069879;28;20031;-91
2023/08/31 07:02:39;;;;;;;3.95;1.70;;;15.80;75.40;;;;;;5067266;28;20028;-91
2023/08/31 07:05:06;;;;;;;2.55;1.55;;;15.90;75.20;;;;;;5071002;28;20032;-91
2023/08/31 07:07:32;;;;;;;4.00;1.60;;;15.90;75.20;;;;;;5066238;28;20078;-92
2023/08/31 07:09:57;;;;;;;5.97;1.73;;;16.00;75.10;;;;;;5068970;28;20028;-91
2023/08/31 07:12:23;;;;;;;5.18;2.08;;;16.00;75.20;;;;;;5070564;28;20054;-92
2023/08/31 07:14:49;;;;;;;3.58;1.80;;;16.10;75.40;;;;;;5067412;28;20124;-92
2023/08/31 07:17:19;;;;;;;3.58;2.08;;;16.20;75.50;;;;;;5066085;28;20020;-92
2023/08/31 07:19:44;;;;;;;3.90;2.00;;;16.20;75.60;;;;;;5068639;28;20043;-92
2023/08/31 07:22:10;;;;;;;3.65;2.00;;;16.30;75.30;;;;;;5068770;28;20036;-93
2023/08/31 07:24:36;;;;;;;4.28;1.75;;;16.40;75.10;;;;;;5065797;28;20028;-92
2023/08/31 07:27:05;;;;;;;7.25;2.00;;;16.40;75.10;;;;;;5064730;28;20024;-91
2023/08/31 07:29:31;;;;;;;4.03;2.03;;;16.60;75.30;;;;;;5067483;28;20032;-92
2023/08/31 07:31:57;;;;;;;4.75;1.77;;;16.60;75.40;;;;;;5069405;28;20554;-93
2023/08/31 07:34:23;;;;;;;3.97;1.90;;;16.70;75.50;;;;;;5087705;28;20047;-93
2023/08/31 07:36:49;;;;;;;4.30;1.80;;;16.80;75.70;;;;;;5084480;28;20028;-92
2023/08/31 07:39:17;;;;;;;5.45;2.05;;;16.90;75.60;;;;;;5083420;28;20042;-93
2023/08/31 07:41:43;;;;;;;5.85;2.20;;;17.00;75.50;;;;;;5087533;28;20471;-93
2023/08/31 07:44:09;;;;;;;3.15;1.90;;;17.10;75.20;;;;;;5086656;28;20064;-92
2023/08/31 07:46:35;;;;;;;6.47;2.38;;;17.20;75.00;;;;;;5090654;28;20027;-91
2023/08/31 07:49:01;;;;;;;6.00;1.80;;;17.30;74.80;;;;;;5085503;28;20037;-92
2023/08/31 07:51:27;;;;;;;4.35;1.60;;;17.30;74.50;;;;;;5085908;28;20020;-92
2023/08/31 07:53:53;;;;;;;6.95;1.90;;;17.40;72.30;;;;;;5081714;28;20467;-91
2023/08/31 07:56:19;;;;;;;4.70;1.40;;;17.50;70.20;;;;;;5083278;28;20028;-93
2023/08/31 07:58:44;;;;;;;5.90;2.00;;;17.50;69.10;;;;;;5082778;28;20028;-92
2023/08/31 08:01:10;;;;;;;4.55;2.00;;;17.40;69.20;;;;;;5092356;28;20028;-91
2023/08/31 08:03:36;;;;;;;4.93;1.73;;;17.40;69.60;;;;;;5085778;28;20028;-91
2023/08/31 08:06:03;;;;;;;3.70;1.60;;;17.40;69.80;;;;;;5081593;28;20035;-91
2023/08/31 08:08:29;;;;;;;4.32;1.70;;;17.50;70.00;;;;;;5082249;28;20036;-91
2023/08/31 08:10:54;;;;;;;5.43;1.85;;;17.50;70.50;;;;;;5083569;28;20113;-91
2023/08/31 08:13:20;;;;;;;6.40;1.85;;;17.60;70.70;;;;;;5086993;28;20097;-91
2023/08/31 08:15:46;;;;;;;3.78;1.70;;;17.80;70.30;;;;;;5084868;28;20116;-91
2023/08/31 08:18:12;;;;;;;5.70;1.60;;;17.90;70.10;;;;;;5088515;28;20032;-91
2023/08/31 08:20:38;;;;;;;8.05;1.80;;;18.10;69.30;;;;;;5086550;28;20032;-90
2023/08/31 08:23:05;;;;;;;5.03;1.75;;;18.30;68.30;;;;;;5081516;28;20039;-92
2023/08/31 08:25:31;;;;;;;6.72;1.80;;;18.40;66.80;;;;;;5090192;28;20384;-92
2023/08/31 08:27:57;;;;;;;3.90;1.52;;;18.50;66.40;;;;;;5091949;28;20639;-92
2023/08/31 08:30:23;;;;;;;2.33;1.35;;;18.60;66.00;;;;;;5090851;28;20454;-93
2023/08/31 08:32:48;;;;;;;4.05;1.60;;;18.70;66.20;;;;;;5085648;28;20040;-92
2023/08/31 08:35:14;;;;;;;4.60;1.60;;;18.70;64.60;;;;;;5092132;28;20041;-92
2023/08/31 08:37:40;;;;;;;8.50;1.88;;;18.80;62.20;;;;;;5085101;28;20024;-91
2023/08/31 08:40:07;;;;;;;4.57;1.20;;;18.80;59.70;;;;;;5081426;28;20463;-93
2023/08/31 08:42:38;;;;;;;8.63;2.00;;;18.70;60.50;;;;;;5092752;28;20102;-93
2023/08/31 08:45:06;;;;;;;5.47;1.85;;;18.70;59.80;;;;;;5088711;28;20113;-92
2023/08/31 08:47:33;;;;;;;4.55;1.70;;;18.70;59.60;;;;;;5088923;28;21582;-92
2023/08/31 08:50:00;;;;;;;5.40;1.80;;;18.70;60.60;;;;;;5091090;28;20058;-94
2023/08/31 08:52:27;;;;;;;9.18;2.22;;;18.60;60.40;;;;;;5100407;28;20031;-93
2023/08/31 08:54:53;;;;;;;3.60;1.90;;;18.60;60.30;;;;;;5090334;28;20027;-93
2023/08/31 08:57:19;;;;;;;4.88;1.63;;;18.60;60.40;;;;;;5087824;28;20027;-93
2023/08/31 08:59:45;;;;;;;6.90;1.95;;;18.60;60.30;;;;;;5090266;28;20116;-94
2023/08/31 09:02:14;;;;;;;2.75;1.50;;;18.70;60.10;;;;;;5086049;28;20039;-94
2023/08/31 09:04:39;;;;;;;7.38;2.47;;;18.70;59.80;;;;;;5086996;28;20111;-93
2023/08/31 09:07:06;;;;;;;3.53;1.83;;;18.80;59.70;;;;;;5085128;28;20063;-93
2023/08/31 09:09:31;;;;;;;4.65;1.65;;;18.90;59.50;;;;;;5086993;28;20481;-94
2023/08/31 09:12:07;;;;;;;2.95;1.48;;;18.90;58.90;;;;;;5091686;28;20039;-93
2023/08/31 09:14:33;;;;;;;4.00;1.70;;;19.10;57.00;;;;;;5084304;28;20124;-93
2023/08/31 09:16:59;;;;;;;6.35;2.13;;;19.10;56.10;;;;;;5084617;28;20613;-92
2023/08/31 09:19:28;;;;;;;3.75;1.83;;;19.10;57.50;;;;;;5083880;28;20027;-92
2023/08/31 09:21:56;;;;;;;3.78;1.67;;;19.20;57.20;;;;;;5084554;28;20061;-92
2023/08/31 09:24:23;;;;;;;5.00;1.52;;;19.30;55.80;;;;;;5088047;28;20051;-93
2023/08/31 09:26:58;;;;;;;3.50;1.38;;;19.30;56.00;;;;;;5087592;28;20028;-92
2023/08/31 09:29:25;;;;;;;6.00;1.88;;;19.40;53.40;;;;;;5088703;28;20046;-93
2023/08/31 09:31:51;;;;;;;2.58;1.15;;;19.50;55.70;;;;;;5083631;28;20043;-91
2023/08/31 09:34:18;;;;;;;3.35;1.35;;;19.70;55.70;;;;;;5084097;28;20095;-92
2023/08/31 09:36:44;;;;;;;2.50;1.50;;;19.80;54.70;;;;;;5100404;28;20101;-92
2023/08/31 09:39:11;;;;;;;7.82;1.80;;;19.90;54.60;;;;;;5085295;28;20019;-93
2023/08/31 09:41:53;;;;;;;5.22;2.30;;;20.00;54.70;;;;;;5083727;28;20060;-92
2023/08/31 09:44:20;;;;;;;3.88;1.70;;;20.10;53.10;;;;;;5083294;28;20110;-91
2023/08/31 09:46:46;;;;;;;3.55;1.63;;;20.20;53.90;;;;;;5079350;28;20043;-91
2023/08/31 09:49:15;;;;;;;2.80;1.45;;;20.30;52.50;;;;;;5092477;28;20023;-91
2023/08/31 09:51:48;;;;;;;3.67;1.55;;;20.50;51.60;;;;;;5088046;28;20039;-90
2023/08/31 09:54:16;;;;;;;5.45;1.90;;;20.50;50.60;;;;;;5080902;28;20028;-94
2023/08/31 09:56:44;;;;;;;6.00;1.98;;;20.50;50.80;;;;;;5088521;28;20505;-90
2023/08/31 09:59:14;;;;;;;8.25;1.92;;;20.50;50.00;;;;;;5088893;28;20080;-91
2023/08/31 10:01:41;;;;;;;3.97;1.70;;;20.50;48.60;;;;;;5092815;28;20035;-90
2023/08/31 10:04:12;;;;;;;5.32;2.08;;;20.40;48.90;;;;;;5097232;28;20077;-91
2023/08/31 10:06:41;;;;;;;3.85;2.10;;;20.30;49.90;;;;;;5091318;28;20049;-91
2023/08/31 10:09:14;;;;;;;4.00;1.88;;;20.30;49.60;;;;;;5090114;28;20070;-92
2023/08/31 10:11:42;;;;;;;4.63;1.77;;;20.30;49.20;;;;;;5083638;28;20414;-91
2023/08/31 10:14:10;;;;;;;5.38;1.80;;;20.40;50.70;;;;;;5083609;28;20028;-92
2023/08/31 10:16:40;;;;;;;4.45;1.67;;;20.40;50.00;;;;;;5084551;28;20490;-92
2023/08/31 10:19:05;;;;;;;5.43;1.80;;;20.60;49.60;;;;;;5106606;28;20024;-90
2023/08/31 10:21:33;;;;;;;6.78;1.85;;;20.70;50.60;;;;;;5085228;28;20054;-91
2023/08/31 10:23:59;;;;;;;3.20;1.52;;;20.90;50.40;;;;;;5083863;28;20028;-91
2023/08/31 10:26:30;;;;;;;4.57;2.00;;;21.00;50.50;;;;;;5086568;28;20028;-90
2023/08/31 10:28:57;;;;;;;5.60;1.35;;;21.20;49.60;;;;;;5090235;28;20051;-91
2023/08/31 10:31:24;;;;;;;3.08;1.77;;;21.20;50.10;;;;;;5081220;28;20032;-90
2023/08/31 10:33:59;;;;;;;5.88;1.75;;;21.30;49.90;;;;;;5077844;28;20105;-91
2023/08/31 10:36:45;;;;;;;4.65;1.83;;;21.30;47.60;;;;;;5083717;28;20020;-91
2023/08/31 10:39:12;;;;;;;5.72;2.10;;;21.30;47.20;;;;;;5078392;28;20083;-90
2023/08/31 10:41:38;;;;;;;4.10;1.70;;;21.30;49.70;;;;;;5079556;28;20032;-90
2023/08/31 10:44:18;;;;;;;4.60;1.88;;;21.40;49.20;;;;;;5076955;28;20055;-91
2023/08/31 10:46:44;;;;;;;8.27;2.25;;;21.40;48.60;;;;;;5081795;28;20053;-92
2023/08/31 10:49:10;;;;;;;6.55;1.90;;;21.40;48.20;;;;;;5085798;28;20028;-90
2023/08/31 10:51:38;;;;;;;6.68;2.13;;;21.40;47.30;;;;;;5080058;28;20028;-91
2023/08/31 10:54:35;;;;;;;4.82;2.00;;;21.50;47.80;;;;;;5083522;28;20024;-91
2023/08/31 10:57:04;;;;;;;4.35;1.75;;;21.50;48.10;;;;;;5076002;28;20343;-91
2023/08/31 10:59:47;;;;;;;4.22;1.75;;;21.60;49.30;;;;;;5084797;28;20101;-92
2023/08/31 11:02:29;;;;;;;2.28;1.42;;;21.70;48.60;;;;;;5096141;28;20471;-90
2023/08/31 11:05:07;;;;;;;3.25;1.60;;;21.80;47.60;;;;;;5082319;28;20517;-90
2023/08/31 11:07:36;;;;;;;3.90;1.65;;;21.80;49.10;;;;;;5081803;28;20028;-91
2023/08/31 11:10:19;;;;;;;9.88;1.85;;;21.70;48.70;;;;;;5099282;28;20126;-91
2023/08/31 11:12:48;;;;;;;4.72;1.90;;;21.70;48.80;;;;;;5076024;28;20056;-94
2023/08/31 11:15:19;;;;;;;2.25;1.30;;;21.60;48.40;;;;;;5081810;28;20036;-91
2023/08/31 11:17:46;;;;;;;3.33;1.38;;;21.50;48.60;;;;;;5081020;28;20062;-91
2023/08/31 11:20:17;;;;;;;3.53;1.60;;;21.40;49.00;;;;;;5080717;28;20123;-90
2023/08/31 11:22:45;;;;;;;3.88;1.70;;;21.30;48.40;;;;;;5076555;28;20032;-91
2023/08/31 11:25:12;;;;;;;3.55;1.50;;;21.30;48.90;;;;;;5074755;28;20133;-91
2023/08/31 11:27:38;;;;;;;3.88;1.80;;;21.30;49.30;;;;;;5082656;28;20028;-91
2023/08/31 11:30:15;;;;;;;3.72;1.80;;;21.30;49.40;;;;;;5078346;28;20025;-91
2023/08/31 11:32:47;;;;;;;3.65;1.70;;;21.30;49.00;;;;;;5082087;28;20134;-91
2023/08/31 11:35:14;;;;;;;6.63;1.95;;;21.40;48.70;;;;;;5076048;28;20028;-91
2023/08/31 11:37:42;;;;;;;5.97;1.70;;;21.50;49.10;;;;;;5078543;28;20474;-90
2023/08/31 11:40:09;;;;;;;5.85;2.10;;;21.60;48.30;;;;;;5083153;28;20028;-90
2023/08/31 11:42:35;;;;;;;5.32;1.95;;;21.70;46.90;;;;;;5078819;28;20047;-90
2023/08/31 11:45:01;;;;;;;6.13;1.50;;;21.70;46.80;;;;;;5083499;28;20032;-90
2023/08/31 11:47:27;;;;;;;3.72;1.55;;;21.70;47.40;;;;;;5083913;28;20471;-89
2023/08/31 11:49:53;;;;;;;7.93;1.80;;;21.60;46.80;;;;;;5086533;28;20045;-92
2023/08/31 11:52:19;;;;;;;4.53;1.80;;;21.50;47.20;;;;;;5076495;28;20052;-90
2023/08/31 11:54:45;;;;;;;3.60;1.73;;;21.40;47.50;;;;;;5081031;28;20587;-92
2023/08/31 11:57:11;;;;;;;5.10;1.77;;;21.50;48.00;;;;;;5081487;28;20404;-91
2023/08/31 11:59:39;;;;;;;4.40;1.75;;;21.40;47.30;;;;;;5082169;28;20086;-91
2023/08/31 12:02:08;;;;;;;5.32;2.10;;;21.40;47.40;;;;;;5081870;28;20048;-90
2023/08/31 12:04:43;;;;;;;4.78;1.52;;;21.40;48.10;;;;;;5087828;28;20020;-91
2023/08/31 12:07:09;;;;;;;3.75;1.70;;;21.50;47.80;;;;;;5076290;28;20497;-91
2023/08/31 12:09:35;;;;;;;3.78;1.50;;;21.60;47.80;;;;;;5079206;28;20190;-91
2023/08/31 12:12:01;;;;;;;5.13;1.60;;;21.70;48.20;;;;;;5083532;28;20119;-91
2023/08/31 12:14:28;;;;;;;5.15;2.00;;;21.90;47.50;;;;;;5087764;28;20106;-93
2023/08/31 12:17:05;;;;;;;3.97;1.80;;;22.00;47.10;;;;;;5084895;28;20387;-93
2023/08/31 12:19:32;;;;;;;4.35;1.80;;;22.10;45.70;;;;;;5088435;28;20028;-93
2023/08/31 12:21:58;;;;;;;3.78;2.00;;;22.10;45.60;;;;;;5081001;28;20107;-93
2023/08/31 12:24:24;;;;;;;6.07;2.22;;;22.20;45.00;;;;;;5082726;28;20077;-92
2023/08/31 12:26:50;;;;;;;6.30;1.90;;;22.20;44.70;;;;;;5078809;28;20459;-92
2023/08/31 12:29:16;;;;;;;4.93;1.70;;;22.20;43.90;;;;;;5081833;28;20482;-92
2023/08/31 12:31:43;;;;;;;6.95;1.98;;;22.20;43.30;;;;;;5080402;28;20072;-92
2023/08/31 12:34:09;;;;;;;3.95;1.90;;;22.20;44.20;;;;;;5078317;28;20063;-92
2023/08/31 12:36:40;;;;;;;5.55;2.03;;;22.20;43.50;;;;;;5085670;28;20467;-92
2023/08/31 12:39:10;;;;;;;5.78;2.20;;;22.20;44.00;;;;;;5084860;28;20032;-93
2023/08/31 12:41:42;;;;;;;4.63;1.67;;;22.20;44.30;;;;;;5081306;28;20605;-93
2023/08/31 12:44:08;;;;;;;3.03;1.95;;;22.20;44.20;;;;;;5080493;28;20031;-91
2023/08/31 12:46:34;;;;;;;3.20;1.60;;;22.20;44.40;;;;;;5085514;28;20538;-92
2023/08/31 12:49:01;;;;;;;4.68;1.52;;;22.30;45.10;;;;;;5082699;28;20107;-91